Time;durP1;ratioP1;P1;durP2;ratioP2;P2;SDS_P1;SDS_P2;PMS_P1;PMS_P2;Temp;Humidity;BMP_temperature;BMP_pressure;BME280_temperature;BME280_humidity;BME280_pressure;Samples;Min_cycle;Max_cycle;Signal;HPM_P1;HPM_P2
2021/07/11 00:00:27;;;;;;;36.17;20.05;;;;;;;;;;5110886;28;20048;-62
2021/07/11 00:03:13;;;;;;;35.85;20.95;;;;;;;;;;5111041;28;20048;-63
2021/07/11 00:05:40;;;;;;;33.90;19.02;;;;;;;;;;5111026;28;20078;-63
2021/07/11 00:08:06;;;;;;;37.60;20.92;;;;;;;;;;5113248;28;20047;-63
2021/07/11 00:10:32;;;;;;;39.22;22.33;;;;;;;;;;5109827;28;20044;-63
2021/07/11 00:12:59;;;;;;;44.38;22.70;;;;;;;;;;5109247;28;20079;-62
2021/07/11 00:15:26;;;;;;;32.85;20.50;;;;;;;;;;5110935;28;20047;-63
2021/07/11 00:17:54;;;;;;;32.03;18.70;;;;;;;;;;5110844;28;20513;-63
2021/07/11 00:20:21;;;;;;;28.75;19.20;;;;;;;;;;5111312;28;20082;-63
2021/07/11 00:22:47;;;;;;;37.58;20.20;;;;;;;;;;5109745;28;20071;-63
2021/07/11 00:25:13;;;;;;;33.92;18.17;;;;;;;;;;5110728;28;20043;-63
2021/07/11 00:27:41;;;;;;;33.92;19.55;;;;;;;;;;5110824;28;20068;-62
2021/07/11 00:30:08;;;;;;;39.10;19.88;;;;;;;;;;5110649;28;20059;-63
2021/07/11 00:32:34;;;;;;;35.08;19.20;;;;;;;;;;5110428;28;20051;-63
2021/07/11 00:35:00;;;;;;;29.85;18.10;;;;;;;;;;5113314;28;20575;-63
2021/07/11 00:37:27;;;;;;;26.50;18.40;;;;;;;;;;5092857;28;20043;-63
2021/07/11 00:39:53;;;;;;;32.90;18.45;;;;;;;;;;5092893;28;20042;-63
2021/07/11 00:42:24;;;;;;;36.15;18.70;;;;;;;;;;5092853;28;20098;-63
2021/07/11 00:44:50;;;;;;;39.53;18.35;;;;;;;;;;5111159;28;20050;-63
2021/07/11 00:47:17;;;;;;;43.38;19.80;;;;;;;;;;5093784;28;20059;-62
2021/07/11 00:49:46;;;;;;;31.13;18.38;;;;;;;;;;5094764;28;20050;-63
2021/07/11 00:52:14;;;;;;;39.38;20.27;;;;;;;;;;5091176;28;20040;-63
2021/07/11 00:54:42;;;;;;;30.88;19.25;;;;;;;;;;5092897;28;20046;-63
2021/07/11 00:57:12;;;;;;;40.20;20.67;;;;;;;;;;5093015;28;20479;-63
2021/07/11 00:59:42;;;;;;;69.15;28.77;;;;;;;;;;5110811;28;20468;-62
2021/07/11 01:02:32;;;;;;;48.30;22.48;;;;;;;;;;5094572;28;20101;-63
2021/07/11 01:05:02;;;;;;;37.50;20.77;;;;;;;;;;5094360;28;20090;-63
2021/07/11 01:07:49;;;;;;;37.78;21.20;;;;;;;;;;5075761;28;20044;-63
2021/07/11 01:10:33;;;;;;;39.00;20.65;;;;;;;;;;5091169;28;20040;-63
2021/07/11 01:13:02;;;;;;;66.47;27.60;;;;;;;;;;5091025;28;20114;-63
2021/07/11 01:15:29;;;;;;;50.20;24.63;;;;;;;;;;5110730;28;20065;-63
2021/07/11 01:18:00;;;;;;;55.08;23.88;;;;;;;;;;5091173;28;20043;-63
2021/07/11 01:20:53;;;;;;;34.50;19.38;;;;;;;;;;5092700;28;20035;-63
2021/07/11 01:23:29;;;;;;;34.08;18.45;;;;;;;;;;5028159;28;20054;-63
2021/07/11 01:25:57;;;;;;;33.63;19.90;;;;;;;;;;5013926;28;20076;-63
2021/07/11 01:28:23;;;;;;;81.65;34.88;;;;;;;;;;5029320;28;20072;-63
2021/07/11 01:30:52;;;;;;;71.53;32.40;;;;;;;;;;5012939;28;20096;-63
2021/07/11 01:33:20;;;;;;;36.20;20.95;;;;;;;;;;5014010;28;20124;-63
2021/07/11 01:35:47;;;;;;;40.17;19.67;;;;;;;;;;5049939;28;20428;-63
2021/07/11 01:38:14;;;;;;;35.95;19.65;;;;;;;;;;5033442;28;20076;-63
2021/07/11 01:40:43;;;;;;;40.78;19.83;;;;;;;;;;5012739;28;20063;-63
2021/07/11 01:43:12;;;;;;;34.63;20.55;;;;;;;;;;5015335;28;20100;-63
2021/07/11 01:45:38;;;;;;;31.88;18.45;;;;;;;;;;5033144;28;20432;-63
2021/07/11 01:48:06;;;;;;;33.22;18.63;;;;;;;;;;5033225;28;20053;-63
2021/07/11 01:50:32;;;;;;;34.00;18.73;;;;;;;;;;5016361;28;20107;-63
2021/07/11 01:52:59;;;;;;;28.17;17.17;;;;;;;;;;5035089;28;20089;-63
2021/07/11 01:55:28;;;;;;;26.20;15.73;;;;;;;;;;5015557;28;20071;-63
2021/07/11 01:57:55;;;;;;;30.48;14.88;;;;;;;;;;5016624;28;20037;-63
2021/07/11 02:00:22;;;;;;;38.03;18.70;;;;;;;;;;5064271;28;20499;-63
2021/07/11 02:02:51;;;;;;;45.33;22.15;;;;;;;;;;5079370;28;20032;-63
2021/07/11 02:05:34;;;;;;;40.20;20.90;;;;;;;;;;5095631;28;20048;-63
2021/07/11 02:08:03;;;;;;;30.05;17.45;;;;;;;;;;5111695;28;20092;-63
2021/07/11 02:10:33;;;;;;;44.40;21.70;;;;;;;;;;5095122;28;20555;-63
2021/07/11 02:13:28;;;;;;;34.97;19.50;;;;;;;;;;5093917;28;20498;-63
2021/07/11 02:16:01;;;;;;;43.47;22.05;;;;;;;;;;5093960;28;20402;-63
2021/07/11 02:18:28;;;;;;;45.38;22.52;;;;;;;;;;5095583;28;20525;-63
2021/07/11 02:20:55;;;;;;;31.02;18.02;;;;;;;;;;5113627;28;20055;-63
2021/07/11 02:23:24;;;;;;;31.88;18.13;;;;;;;;;;5095455;28;20536;-63
2021/07/11 02:25:53;;;;;;;26.92;15.55;;;;;;;;;;5097544;28;20399;-63
2021/07/11 02:28:20;;;;;;;32.42;16.17;;;;;;;;;;5093402;28;20051;-63
2021/07/11 02:30:58;;;;;;;22.52;15.30;;;;;;;;;;5093716;28;20506;-63
2021/07/11 02:33:32;;;;;;;31.05;14.52;;;;;;;;;;5113115;28;20071;-63
2021/07/11 02:36:01;;;;;;;28.90;14.77;;;;;;;;;;5095393;28;20447;-63
2021/07/11 02:38:32;;;;;;;22.92;14.55;;;;;;;;;;5095124;28;20083;-63
2021/07/11 02:41:00;;;;;;;26.77;15.10;;;;;;;;;;5096942;28;20105;-63
2021/07/11 02:43:29;;;;;;;33.95;18.00;;;;;;;;;;5094925;28;20081;-63
2021/07/11 02:45:56;;;;;;;28.70;16.90;;;;;;;;;;5112612;28;20046;-63
2021/07/11 02:48:23;;;;;;;34.22;18.70;;;;;;;;;;5093308;28;20036;-63
2021/07/11 02:50:52;;;;;;;40.85;22.70;;;;;;;;;;5094905;28;20039;-63
2021/07/11 02:53:20;;;;;;;60.08;35.60;;;;;;;;;;5095335;28;20522;-63
2021/07/11 02:55:51;;;;;;;82.57;50.13;;;;;;;;;;5094912;28;20096;-63
2021/07/11 02:58:22;;;;;;;73.20;43.03;;;;;;;;;;5094781;28;20072;-63
2021/07/11 03:00:51;;;;;;;57.80;37.33;;;;;;;;;;5092770;28;20051;-63
2021/07/11 03:03:19;;;;;;;60.08;35.20;;;;;;;;;;5094239;28;20055;-63
2021/07/11 03:05:58;;;;;;;41.63;25.00;;;;;;;;;;5093219;28;20044;-63
2021/07/11 03:08:26;;;;;;;39.90;23.30;;;;;;;;;;5094571;28;20047;-63
2021/07/11 03:10:57;;;;;;;49.47;28.98;;;;;;;;;;5096575;28;20407;-63
2021/07/11 03:13:26;;;;;;;38.92;21.88;;;;;;;;;;5094458;28;20105;-63
2021/07/11 03:15:52;;;;;;;31.83;20.25;;;;;;;;;;5093764;28;20457;-63
2021/07/11 03:18:23;;;;;;;44.88;24.00;;;;;;;;;;5111517;28;20044;-63
2021/07/11 03:20:50;;;;;;;40.08;21.13;;;;;;;;;;5092491;28;20087;-63
2021/07/11 03:23:18;;;;;;;38.35;20.08;;;;;;;;;;5094633;28;20047;-63
2021/07/11 03:25:48;;;;;;;42.83;21.98;;;;;;;;;;5095185;28;20055;-64
2021/07/11 03:28:15;;;;;;;35.83;17.88;;;;;;;;;;5110229;28;20081;-63
2021/07/11 03:30:43;;;;;;;32.95;18.60;;;;;;;;;;5111674;28;20398;-63
2021/07/11 03:33:10;;;;;;;32.92;16.95;;;;;;;;;;5111470;28;20430;-64
2021/07/11 03:35:43;;;;;;;23.27;15.45;;;;;;;;;;5077891;28;20051;-63
2021/07/11 03:38:11;;;;;;;25.13;14.40;;;;;;;;;;5092010;28;20100;-63
2021/07/11 03:40:39;;;;;;;22.83;14.00;;;;;;;;;;5111359;28;20092;-63
2021/07/11 03:43:07;;;;;;;21.60;14.13;;;;;;;;;;5093856;28;20134;-64
2021/07/11 03:45:34;;;;;;;22.30;13.85;;;;;;;;;;5111737;28;20043;-63
2021/07/11 03:48:06;;;;;;;24.27;13.73;;;;;;;;;;5111929;28;20500;-63
2021/07/11 03:50:34;;;;;;;51.92;21.85;;;;;;;;;;5111979;28;20040;-63
2021/07/11 03:53:02;;;;;;;52.05;25.48;;;;;;;;;;5113887;28;20123;-63
2021/07/11 03:55:31;;;;;;;30.92;15.73;;;;;;;;;;5111340;28;20079;-63
2021/07/11 03:57:59;;;;;;;27.17;14.60;;;;;;;;;;5111299;28;20066;-63
2021/07/11 04:00:25;;;;;;;31.33;16.95;;;;;;;;;;5111374;28;20516;-63
2021/07/11 04:02:53;;;;;;;28.15;15.10;;;;;;;;;;5111617;28;20066;-64
2021/07/11 04:05:23;;;;;;;26.52;14.98;;;;;;;;;;5112536;28;20043;-64
2021/07/11 04:07:51;;;;;;;37.80;16.23;;;;;;;;;;5111913;28;20130;-64
2021/07/11 04:10:17;;;;;;;27.25;15.70;;;;;;;;;;5111398;28;20035;-63
2021/07/11 04:12:44;;;;;;;23.80;13.10;;;;;;;;;;5111310;28;20085;-64
2021/07/11 04:15:10;;;;;;;20.58;12.27;;;;;;;;;;5111267;28;20043;-64
2021/07/11 04:17:38;;;;;;;26.42;14.00;;;;;;;;;;5095338;28;20070;-64
2021/07/11 04:20:06;;;;;;;25.45;14.52;;;;;;;;;;5113728;28;20104;-64
2021/07/11 04:22:32;;;;;;;30.65;14.52;;;;;;;;;;5111227;28;20048;-64
2021/07/11 04:25:00;;;;;;;22.13;12.43;;;;;;;;;;5111246;28;20373;-64
2021/07/11 04:27:27;;;;;;;23.58;14.32;;;;;;;;;;5111053;28;20051;-64
2021/07/11 04:29:54;;;;;;;21.38;13.23;;;;;;;;;;5111000;28;20040;-63
2021/07/11 04:32:20;;;;;;;24.02;13.52;;;;;;;;;;5111713;28;20064;-64
2021/07/11 04:34:46;;;;;;;25.10;13.32;;;;;;;;;;5113092;28;20047;-63
2021/07/11 04:37:13;;;;;;;25.65;15.10;;;;;;;;;;5111142;28;20114;-63
2021/07/11 04:39:40;;;;;;;20.48;14.15;;;;;;;;;;5111015;28;20064;-64
2021/07/11 04:42:06;;;;;;;27.38;13.82;;;;;;;;;;5111154;28;20043;-63
2021/07/11 04:44:32;;;;;;;25.10;13.63;;;;;;;;;;5110536;28;20123;-63
2021/07/11 04:46:59;;;;;;;23.20;14.02;;;;;;;;;;5112575;28;20078;-64
2021/07/11 04:49:25;;;;;;;28.02;14.57;;;;;;;;;;5092955;28;20065;-63
2021/07/11 04:51:52;;;;;;;23.80;13.80;;;;;;;;;;5111063;28;20047;-64
2021/07/11 04:54:19;;;;;;;25.77;14.07;;;;;;;;;;5092924;28;20071;-63
2021/07/11 04:56:45;;;;;;;21.52;14.07;;;;;;;;;;5111086;28;20487;-63
2021/07/11 04:59:11;;;;;;;23.90;12.40;;;;;;;;;;5112021;28;20066;-63
2021/07/11 05:01:38;;;;;;;27.80;14.50;;;;;;;;;;5111642;28;20441;-63
2021/07/11 05:04:04;;;;;;;27.13;14.55;;;;;;;;;;5110864;28;20173;-63
2021/07/11 05:06:31;;;;;;;20.75;12.90;;;;;;;;;;5110884;28;20058;-63
2021/07/11 05:08:59;;;;;;;24.52;13.07;;;;;;;;;;5114349;28;20462;-63
2021/07/11 05:11:25;;;;;;;20.48;13.35;;;;;;;;;;5114926;28;20044;-64
2021/07/11 05:13:52;;;;;;;20.00;12.90;;;;;;;;;;5116723;28;20410;-64
2021/07/11 05:16:18;;;;;;;16.35;11.27;;;;;;;;;;5113580;28;20084;-63
2021/07/11 05:18:44;;;;;;;17.83;11.32;;;;;;;;;;5114784;28;20051;-63
2021/07/11 05:21:11;;;;;;;12.95;9.25;;;;;;;;;;5114896;28;20040;-63
2021/07/11 05:23:37;;;;;;;17.33;10.75;;;;;;;;;;5098482;28;20055;-64
2021/07/11 05:26:03;;;;;;;14.30;9.43;;;;;;;;;;5116866;28;20067;-63
2021/07/11 05:28:30;;;;;;;14.25;9.07;;;;;;;;;;5114266;28;20079;-63
2021/07/11 05:30:56;;;;;;;12.88;8.93;;;;;;;;;;5114682;28;20071;-63
2021/07/11 05:33:22;;;;;;;13.25;9.30;;;;;;;;;;5114634;28;20046;-63
2021/07/11 05:35:49;;;;;;;16.13;9.77;;;;;;;;;;5114629;28;20040;-63
2021/07/11 05:38:16;;;;;;;14.23;8.73;;;;;;;;;;5115808;28;20509;-63
2021/07/11 05:40:42;;;;;;;15.85;9.50;;;;;;;;;;5115471;28;20096;-63
2021/07/11 05:43:08;;;;;;;11.35;8.50;;;;;;;;;;5114034;28;20040;-64
2021/07/11 05:45:35;;;;;;;14.38;9.18;;;;;;;;;;5114353;28;20071;-63
2021/07/11 05:48:01;;;;;;;15.30;8.50;;;;;;;;;;5114372;28;20044;-63
2021/07/11 05:50:27;;;;;;;13.18;9.23;;;;;;;;;;5114471;28;20047;-63
2021/07/11 05:52:54;;;;;;;17.17;10.45;;;;;;;;;;5116264;28;20067;-63
2021/07/11 05:55:20;;;;;;;18.42;11.23;;;;;;;;;;5089910;28;20418;-63
2021/07/11 05:57:46;;;;;;;14.98;10.48;;;;;;;;;;5113843;28;20118;-63
2021/07/11 06:00:13;;;;;;;19.92;12.02;;;;;;;;;;5114034;28;20071;-63
2021/07/11 06:02:39;;;;;;;16.92;11.52;;;;;;;;;;5113173;28;20490;-63
2021/07/11 06:05:06;;;;;;;15.18;10.88;;;;;;;;;;5111919;28;20047;-63
2021/07/11 06:07:32;;;;;;;16.75;9.68;;;;;;;;;;5114061;28;20074;-63
2021/07/11 06:09:59;;;;;;;11.98;8.50;;;;;;;;;;5113866;28;20059;-64
2021/07/11 06:12:26;;;;;;;21.30;9.90;;;;;;;;;;5113654;28;20441;-63
2021/07/11 06:14:54;;;;;;;14.63;9.27;;;;;;;;;;5112031;27;20040;-64
2021/07/11 06:17:21;;;;;;;16.58;8.13;;;;;;;;;;5113845;28;20387;-63
2021/07/11 06:19:47;;;;;;;9.98;7.30;;;;;;;;;;5112441;28;20176;-63
2021/07/11 06:22:13;;;;;;;10.40;6.25;;;;;;;;;;5113700;28;20052;-64
2021/07/11 06:24:40;;;;;;;12.32;7.80;;;;;;;;;;5113597;28;20539;-63
2021/07/11 06:27:06;;;;;;;10.35;6.00;;;;;;;;;;5113175;28;20039;-63
2021/07/11 06:29:32;;;;;;;10.15;5.97;;;;;;;;;;5113331;28;20380;-64
2021/07/11 06:31:58;;;;;;;10.43;5.72;;;;;;;;;;5097349;28;20104;-63
2021/07/11 06:34:25;;;;;;;10.07;5.03;;;;;;;;;;5113310;28;20047;-63
2021/07/11 06:36:51;;;;;;;6.60;5.70;;;;;;;;;;5113341;28;20048;-64
2021/07/11 06:39:18;;;;;;;13.82;6.00;;;;;;;;;;5113285;28;20045;-63
2021/07/11 06:41:44;;;;;;;9.35;6.00;;;;;;;;;;5111686;28;20479;-64
2021/07/11 06:44:11;;;;;;;6.25;4.20;;;;;;;;;;5114621;28;20047;-64
2021/07/11 06:46:37;;;;;;;6.00;4.72;;;;;;;;;;5112463;28;20047;-64
2021/07/11 06:49:05;;;;;;;6.22;4.25;;;;;;;;;;5113152;28;20088;-63
2021/07/11 06:51:32;;;;;;;4.40;3.90;;;;;;;;;;5112987;28;20055;-64
2021/07/11 06:53:58;;;;;;;4.57;3.92;;;;;;;;;;5112993;28;20040;-64
2021/07/11 06:56:24;;;;;;;4.63;4.13;;;;;;;;;;5112811;28;20059;-64
2021/07/11 06:58:51;;;;;;;6.90;4.05;;;;;;;;;;5096700;28;20078;-64
2021/07/11 07:01:17;;;;;;;5.07;4.10;;;;;;;;;;5112810;28;20047;-64
2021/07/11 07:03:43;;;;;;;5.60;4.43;;;;;;;;;;5112747;28;20040;-64
2021/07/11 07:06:10;;;;;;;6.22;4.47;;;;;;;;;;5094620;28;20058;-64
2021/07/11 07:08:36;;;;;;;5.63;3.88;;;;;;;;;;5094704;28;20396;-64
2021/07/11 07:11:02;;;;;;;9.98;3.42;;;;;;;;;;5114718;28;20172;-64
2021/07/11 07:13:29;;;;;;;5.22;3.85;;;;;;;;;;5112333;28;20079;-64
2021/07/11 07:15:55;;;;;;;6.40;3.72;;;;;;;;;;5112652;28;20043;-64
2021/07/11 07:18:21;;;;;;;3.55;3.25;;;;;;;;;;5112498;28;20074;-64
2021/07/11 07:20:48;;;;;;;4.57;3.22;;;;;;;;;;5111095;28;20499;-64
2021/07/11 07:23:14;;;;;;;3.78;3.38;;;;;;;;;;5113637;28;20043;-64
2021/07/11 07:25:40;;;;;;;8.35;3.40;;;;;;;;;;5113151;28;20043;-64
2021/07/11 07:28:10;;;;;;;7.57;3.13;;;;;;;;;;5112140;28;20433;-64
2021/07/11 07:30:37;;;;;;;4.20;3.55;;;;;;;;;;5112091;28;20047;-64
2021/07/11 07:33:03;;;;;;;4.18;3.30;;;;;;;;;;5112202;28;20039;-64
2021/07/11 07:35:29;;;;;;;7.10;3.80;;;;;;;;;;5112178;28;20083;-64
2021/07/11 07:37:56;;;;;;;3.65;3.10;;;;;;;;;;5114131;28;20052;-64
2021/07/11 07:40:22;;;;;;;4.60;3.63;;;;;;;;;;5111827;28;20534;-64
2021/07/11 07:42:49;;;;;;;3.40;2.63;;;;;;;;;;5111846;28;20498;-64
2021/07/11 07:45:16;;;;;;;3.58;2.88;;;;;;;;;;5093987;28;20402;-64
2021/07/11 07:47:42;;;;;;;4.22;3.08;;;;;;;;;;5111900;28;20048;-64
2021/07/11 07:50:10;;;;;;;2.88;2.58;;;;;;;;;;5113873;28;20055;-64
2021/07/11 07:52:36;;;;;;;3.05;2.50;;;;;;;;;;5112212;28;20049;-64
2021/07/11 07:55:03;;;;;;;3.88;2.42;;;;;;;;;;5108832;27;20087;-64
2021/07/11 07:57:30;;;;;;;5.63;2.80;;;;;;;;;;5109790;28;20071;-64
2021/07/11 07:59:56;;;;;;;5.95;2.75;;;;;;;;;;5106506;28;20517;-64
2021/07/11 08:02:23;;;;;;;3.67;2.85;;;;;;;;;;5107731;28;20044;-62
2021/07/11 08:04:50;;;;;;;3.45;2.80;;;;;;;;;;5108069;28;20059;-65
2021/07/11 08:07:17;;;;;;;4.72;2.72;;;;;;;;;;5107621;28;20039;-64
2021/07/11 08:09:43;;;;;;;4.22;2.60;;;;;;;;;;5103174;28;20104;-65
2021/07/11 08:12:10;;;;;;;4.78;3.15;;;;;;;;;;5102378;28;20068;-63
2021/07/11 08:14:36;;;;;;;3.75;2.60;;;;;;;;;;5098096;28;20487;-64
2021/07/11 08:17:02;;;;;;;4.18;2.60;;;;;;;;;;5112996;28;20100;-65
2021/07/11 08:19:29;;;;;;;4.65;3.22;;;;;;;;;;5091588;28;20104;-64
2021/07/11 08:21:57;;;;;;;3.28;2.70;;;;;;;;;;5110237;28;20538;-64
2021/07/11 08:24:24;;;;;;;3.78;2.97;;;;;;;;;;5111346;28;20043;-64
2021/07/11 08:26:50;;;;;;;4.55;3.30;;;;;;;;;;5111239;28;20461;-64
2021/07/11 08:29:16;;;;;;;3.95;2.35;;;;;;;;;;5098812;28;20059;-64
2021/07/11 08:31:43;;;;;;;6.43;3.38;;;;;;;;;;5107580;28;20039;-65
2021/07/11 08:34:10;;;;;;;3.10;2.42;;;;;;;;;;5102165;28;20047;-65
2021/07/11 08:36:36;;;;;;;3.33;2.67;;;;;;;;;;5094769;28;20043;-65
2021/07/11 08:39:03;;;;;;;3.15;2.50;;;;;;;;;;5104174;28;20040;-64
2021/07/11 08:41:30;;;;;;;2.85;2.38;;;;;;;;;;5118763;28;23658;-64
2021/07/11 08:43:56;;;;;;;3.55;2.75;;;;;;;;;;5093287;28;20048;-62
2021/07/11 08:46:23;;;;;;;5.82;3.05;;;;;;;;;;5100772;28;20971;-63
2021/07/11 08:48:51;;;;;;;4.88;2.88;;;;;;;;;;5103413;28;20085;-62
2021/07/11 08:51:17;;;;;;;4.13;2.92;;;;;;;;;;5094595;28;20073;-63
2021/07/11 08:53:45;;;;;;;3.00;2.45;;;;;;;;;;5092778;28;20814;-62
2021/07/11 08:56:16;;;;;;;3.47;3.03;;;;;;;;;;5096486;28;20127;-63
2021/07/11 08:58:44;;;;;;;3.85;3.33;;;;;;;;;;5101809;28;20043;-62
2021/07/11 09:01:10;;;;;;;3.60;2.72;;;;;;;;;;5098937;28;20505;-62
2021/07/11 09:03:37;;;;;;;5.10;2.92;;;;;;;;;;5096405;28;20067;-63
2021/07/11 09:06:03;;;;;;;26.20;3.72;;;;;;;;;;5106074;28;20196;-62
2021/07/11 09:08:31;;;;;;;4.38;2.92;;;;;;;;;;5102874;28;20170;-63
2021/07/11 09:10:58;;;;;;;3.42;2.95;;;;;;;;;;5098209;28;20044;-63
2021/07/11 09:13:25;;;;;;;5.00;3.47;;;;;;;;;;5100481;28;20059;-63
2021/07/11 09:15:55;;;;;;;5.90;3.25;;;;;;;;;;5104253;28;20051;-62
2021/07/11 09:18:26;;;;;;;3.92;3.03;;;;;;;;;;5102150;28;20329;-64
2021/07/11 09:20:55;;;;;;;5.28;3.20;;;;;;;;;;5105797;28;20138;-62
2021/07/11 09:23:22;;;;;;;3.88;3.30;;;;;;;;;;5100148;28;20044;-62
2021/07/11 09:25:58;;;;;;;3.72;3.20;;;;;;;;;;5082834;28;20175;-64
2021/07/11 09:28:25;;;;;;;3.50;3.20;;;;;;;;;;5100196;28;20082;-64
2021/07/11 09:31:04;;;;;;;4.30;3.10;;;;;;;;;;5102881;28;20051;-64
2021/07/11 09:33:31;;;;;;;3.35;2.95;;;;;;;;;;5102523;28;20048;-64
2021/07/11 09:36:04;;;;;;;3.60;2.90;;;;;;;;;;5100037;28;20071;-64
2021/07/11 09:38:31;;;;;;;3.63;2.72;;;;;;;;;;5093210;28;20035;-64
2021/07/11 09:40:57;;;;;;;5.20;3.30;;;;;;;;;;5095679;28;20048;-64
2021/07/11 09:43:24;;;;;;;4.65;2.83;;;;;;;;;;5108083;28;20054;-64
2021/07/11 09:45:50;;;;;;;7.85;3.20;;;;;;;;;;5105617;28;20126;-64
2021/07/11 09:48:16;;;;;;;3.88;3.47;;;;;;;;;;5104605;28;20043;-64
2021/07/11 09:50:43;;;;;;;3.40;2.80;;;;;;;;;;5108814;28;20117;-64
2021/07/11 09:53:11;;;;;;;4.00;3.10;;;;;;;;;;5110546;28;20052;-64
2021/07/11 09:55:37;;;;;;;4.65;3.45;;;;;;;;;;5110550;28;20071;-64
2021/07/11 09:58:05;;;;;;;5.38;3.83;;;;;;;;;;5111667;28;20047;-64
2021/07/11 10:00:33;;;;;;;4.63;3.17;;;;;;;;;;5103781;28;20050;-64
2021/07/11 10:03:00;;;;;;;7.43;3.35;;;;;;;;;;5091516;28;20058;-63
2021/07/11 10:05:27;;;;;;;3.38;2.50;;;;;;;;;;5113157;28;20094;-63
2021/07/11 10:07:54;;;;;;;3.17;2.88;;;;;;;;;;5114432;28;20577;-62
2021/07/11 10:10:22;;;;;;;3.28;2.78;;;;;;;;;;5111370;28;20050;-63
2021/07/11 10:12:49;;;;;;;3.25;2.55;;;;;;;;;;5112606;28;20067;-63
2021/07/11 10:15:20;;;;;;;3.92;2.80;;;;;;;;;;5112711;28;20040;-64
2021/07/11 10:17:51;;;;;;;3.30;2.38;;;;;;;;;;5112737;28;20050;-64
2021/07/11 10:20:20;;;;;;;3.42;2.92;;;;;;;;;;5113836;28;20136;-64
2021/07/11 10:22:48;;;;;;;2.67;2.47;;;;;;;;;;5096663;28;20479;-64
2021/07/11 10:25:16;;;;;;;3.70;2.33;;;;;;;;;;5111190;28;20130;-65
2021/07/11 10:27:43;;;;;;;4.35;2.63;;;;;;;;;;5111989;28;20079;-65
2021/07/11 10:30:10;;;;;;;4.10;2.40;;;;;;;;;;5112395;28;20392;-63
2021/07/11 10:32:36;;;;;;;2.70;2.40;;;;;;;;;;5113506;28;20044;-64
2021/07/11 10:35:14;;;;;;;5.30;2.50;;;;;;;;;;5114229;28;20071;-63
2021/07/11 10:37:46;;;;;;;4.75;2.25;;;;;;;;;;5112111;28;20048;-65
2021/07/11 10:40:18;;;;;;;2.83;2.50;;;;;;;;;;5112176;28;20097;-66
2021/07/11 10:42:44;;;;;;;3.03;2.70;;;;;;;;;;5112264;28;20387;-65
2021/07/11 10:45:12;;;;;;;3.22;2.92;;;;;;;;;;5112341;28;20047;-65
2021/07/11 10:47:38;;;;;;;4.43;2.22;;;;;;;;;;5095769;28;20450;-65
2021/07/11 10:50:08;;;;;;;3.03;2.30;;;;;;;;;;5114098;28;20043;-64
2021/07/11 10:52:40;;;;;;;14.38;2.53;;;;;;;;;;5110618;28;20479;-63
2021/07/11 10:55:09;;;;;;;4.00;2.60;;;;;;;;;;5111598;28;20398;-65
2021/07/11 10:57:37;;;;;;;2.88;2.30;;;;;;;;;;5110747;28;20499;-64
2021/07/11 11:00:30;;;;;;;2.78;2.40;;;;;;;;;;5111261;28;20036;-64
2021/07/11 11:02:59;;;;;;;4.10;2.72;;;;;;;;;;5096928;28;20077;-65
2021/07/11 11:05:26;;;;;;;3.17;2.20;;;;;;;;;;5110373;28;20051;-65
2021/07/11 11:07:53;;;;;;;3.03;2.33;;;;;;;;;;5095640;28;20071;-64
2021/07/11 11:10:20;;;;;;;3.50;2.50;;;;;;;;;;5111773;28;20541;-63
2021/07/11 11:12:46;;;;;;;2.78;2.20;;;;;;;;;;5111205;28;20130;-65
2021/07/11 11:15:15;;;;;;;7.05;2.60;;;;;;;;;;5109871;28;20553;-66
2021/07/11 11:17:42;;;;;;;2.83;2.00;;;;;;;;;;5093562;28;20522;-65
2021/07/11 11:20:09;;;;;;;3.10;2.50;;;;;;;;;;5114296;28;20065;-65
2021/07/11 11:22:36;;;;;;;2.85;2.33;;;;;;;;;;5111855;28;20453;-65
2021/07/11 11:25:03;;;;;;;2.53;2.20;;;;;;;;;;5111524;28;20043;-66
2021/07/11 11:27:37;;;;;;;6.72;2.20;;;;;;;;;;5111270;28;20062;-64
2021/07/11 11:30:20;;;;;;;2.50;2.10;;;;;;;;;;5111365;28;20456;-64
2021/07/11 11:32:50;;;;;;;2.55;2.20;;;;;;;;;;5096363;28;20048;-64
2021/07/11 11:35:17;;;;;;;2.22;1.92;;;;;;;;;;5113205;28;20513;-65
2021/07/11 11:37:47;;;;;;;4.38;2.30;;;;;;;;;;5112434;28;20090;-63
2021/07/11 11:40:14;;;;;;;2.65;2.20;;;;;;;;;;5111073;28;20040;-64
2021/07/11 11:42:47;;;;;;;7.43;2.50;;;;;;;;;;5111475;28;20066;-65
2021/07/11 11:45:14;;;;;;;2.97;2.20;;;;;;;;;;5111088;28;20047;-65
2021/07/11 11:47:40;;;;;;;2.10;1.90;;;;;;;;;;5111210;28;20123;-65
2021/07/11 11:50:10;;;;;;;3.13;2.30;;;;;;;;;;5113092;28;20487;-65
2021/07/11 11:52:36;;;;;;;3.15;2.40;;;;;;;;;;5111901;28;20047;-64
2021/07/11 11:55:04;;;;;;;4.43;2.83;;;;;;;;;;5109246;28;20059;-65
2021/07/11 11:57:36;;;;;;;3.38;2.03;;;;;;;;;;5111076;28;20047;-65
2021/07/11 12:00:04;;;;;;;3.03;2.30;;;;;;;;;;5110713;28;20122;-65
2021/07/11 12:02:32;;;;;;;2.78;2.22;;;;;;;;;;5110735;28;20129;-65
2021/07/11 12:05:28;;;;;;;4.20;2.38;;;;;;;;;;5113315;28;20097;-67
2021/07/11 12:07:56;;;;;;;3.05;2.30;;;;;;;;;;5096226;28;20132;-64
2021/07/11 12:10:23;;;;;;;5.38;2.03;;;;;;;;;;5110729;28;20380;-65
2021/07/11 12:13:15;;;;;;;3.78;2.10;;;;;;;;;;5110415;28;20414;-65
2021/07/11 12:15:42;;;;;;;2.40;2.08;;;;;;;;;;5107185;28;20078;-64
2021/07/11 12:18:11;;;;;;;2.65;2.28;;;;;;;;;;5110226;28;20040;-66
2021/07/11 12:20:40;;;;;;;2.38;2.03;;;;;;;;;;5110648;28;20648;-64
2021/07/11 12:23:10;;;;;;;6.07;1.98;;;;;;;;;;5112560;28;20051;-65
2021/07/11 12:25:39;;;;;;;2.20;2.00;;;;;;;;;;5111264;28;20048;-65
2021/07/11 12:28:07;;;;;;;3.17;2.03;;;;;;;;;;5110192;28;20108;-65
2021/07/11 12:30:39;;;;;;;2.25;2.03;;;;;;;;;;5110367;28;20047;-67
2021/07/11 12:33:07;;;;;;;6.22;2.20;;;;;;;;;;5109166;28;20047;-65
2021/07/11 12:35:42;;;;;;;2.10;1.90;;;;;;;;;;5092264;28;20112;-65
2021/07/11 12:38:09;;;;;;;4.13;2.30;;;;;;;;;;5108628;28;20044;-63
2021/07/11 12:40:36;;;;;;;2.17;1.98;;;;;;;;;;5109214;28;20055;-67
2021/07/11 12:43:19;;;;;;;4.85;2.40;;;;;;;;;;5109788;28;20403;-64
2021/07/11 12:45:57;;;;;;;4.78;3.53;;;;;;;;;;5110232;28;20044;-63
2021/07/11 12:48:34;;;;;;;34.10;21.88;;;;;;;;;;5110130;28;20051;-66
2021/07/11 12:51:11;;;;;;;8.27;5.70;;;;;;;;;;5110033;28;20085;-65
2021/07/11 12:53:37;;;;;;;13.98;9.75;;;;;;;;;;5110409;28;20070;-65
2021/07/11 12:56:04;;;;;;;2.63;2.10;;;;;;;;;;5094226;28;20463;-64
2021/07/11 12:58:37;;;;;;;3.17;2.53;;;;;;;;;;5109875;28;20531;-64
2021/07/11 13:01:05;;;;;;;5.18;2.20;;;;;;;;;;5109530;28;20070;-65
2021/07/11 13:03:31;;;;;;;9.75;7.53;;;;;;;;;;5110001;28;20043;-66
2021/07/11 13:05:59;;;;;;;12.35;4.30;;;;;;;;;;5110727;28;20050;-65
2021/07/11 13:08:25;;;;;;;2.72;2.15;;;;;;;;;;5109787;28;20415;-66
2021/07/11 13:10:52;;;;;;;5.28;2.63;;;;;;;;;;5112083;28;20058;-65
2021/07/11 13:13:18;;;;;;;3.50;2.70;;;;;;;;;;5108265;28;20521;-66
2021/07/11 13:15:44;;;;;;;2.83;2.53;;;;;;;;;;5110252;28;20082;-66
2021/07/11 13:18:11;;;;;;;2.92;2.58;;;;;;;;;;5110538;28;20036;-65
2021/07/11 13:20:38;;;;;;;2.50;1.92;;;;;;;;;;5091118;28;20044;-67
2021/07/11 13:23:05;;;;;;;2.35;2.00;;;;;;;;;;5112169;28;20083;-64
2021/07/11 13:25:31;;;;;;;2.45;2.00;;;;;;;;;;5110354;28;20039;-67
2021/07/11 13:27:57;;;;;;;2.30;2.03;;;;;;;;;;5110245;28;20055;-66
2021/07/11 13:30:25;;;;;;;2.35;2.00;;;;;;;;;;5114270;28;20078;-66
2021/07/11 13:32:55;;;;;;;3.15;1.98;;;;;;;;;;5094300;28;20040;-66
2021/07/11 13:35:22;;;;;;;2.90;2.10;;;;;;;;;;5114936;28;20051;-66
2021/07/11 13:37:49;;;;;;;2.55;2.10;;;;;;;;;;5116122;28;20051;-66
2021/07/11 13:40:15;;;;;;;5.97;1.60;;;;;;;;;;5113840;28;20402;-66
2021/07/11 13:42:42;;;;;;;5.50;2.05;;;;;;;;;;5113893;28;20056;-66
2021/07/11 13:45:09;;;;;;;8.07;1.98;;;;;;;;;;5114201;28;20499;-65
2021/07/11 13:47:36;;;;;;;2.38;1.95;;;;;;;;;;5114067;28;20040;-66
2021/07/11 13:50:07;;;;;;;2.45;2.25;;;;;;;;;;5115523;28;20040;-66
2021/07/11 13:52:33;;;;;;;5.32;1.65;;;;;;;;;;5111314;28;20079;-66
2021/07/11 13:54:59;;;;;;;2.30;2.00;;;;;;;;;;5113388;28;20047;-66
2021/07/11 13:57:26;;;;;;;6.03;2.60;;;;;;;;;;5113615;28;20042;-66
2021/07/11 13:59:52;;;;;;;2.17;1.88;;;;;;;;;;5113694;28;20063;-67
2021/07/11 14:02:25;;;;;;;3.28;2.00;;;;;;;;;;5114577;28;20422;-66
2021/07/11 14:04:52;;;;;;;1.98;1.75;;;;;;;;;;5112874;28;20051;-65
2021/07/11 14:07:18;;;;;;;2.08;1.75;;;;;;;;;;5113223;28;20043;-67
2021/07/11 14:09:46;;;;;;;2.72;1.85;;;;;;;;;;5112697;28;20077;-65
2021/07/11 14:12:12;;;;;;;2.35;1.80;;;;;;;;;;5095089;28;20043;-65
2021/07/11 14:14:39;;;;;;;3.45;1.88;;;;;;;;;;5097525;28;20503;-64
2021/07/11 14:17:05;;;;;;;2.58;2.10;;;;;;;;;;5115571;28;20057;-64
2021/07/11 14:19:32;;;;;;;2.00;1.80;;;;;;;;;;5113218;28;20044;-65
2021/07/11 14:21:58;;;;;;;3.15;2.20;;;;;;;;;;5093440;28;20048;-65
2021/07/11 14:24:25;;;;;;;2.35;2.03;;;;;;;;;;5113261;28;20069;-65
2021/07/11 14:26:51;;;;;;;2.88;1.80;;;;;;;;;;5113195;28;20555;-64
2021/07/11 14:29:18;;;;;;;4.35;1.70;;;;;;;;;;5113991;28;20168;-65
2021/07/11 14:31:45;;;;;;;2.53;1.98;;;;;;;;;;5112787;28;20069;-65
2021/07/11 14:34:12;;;;;;;3.67;2.00;;;;;;;;;;5113149;28;20040;-65
2021/07/11 14:36:40;;;;;;;2.10;1.85;;;;;;;;;;5113198;28;20526;-66